SPS - Sheppard Afb/Wichita Falls Muni

Pirep is a free, collaborative database of all public and private airports located within the United States. All pilots are welcome to contribute, edit, and improve any airport they have local knowledge about, no registration required.
Are you familiar with this airport? Help out other pilots by adding your local knowledge.
Uploaded photos will be licensed under a CC BY-SA 4.0 license. Please only upload photos you have the rights to use.
Tags
Undocu­mented
METAR / TAF
Edit Tags
Food
Camping
Lodging
Car Rental
Bicycles
Swimming
Golfing
Fishing
Hot Springs
Museum
Flying Clubs
Airpark
Upcoming Events
No upcoming events. Is anything happening here soon?
*
*
*

Where exactly on/near the airport is this event taking place?

Is there a webpage with more information for this event?

Who should be contacted for more information?

What is this event all about?

Repeat every
Description
Transient Parking
Fuel Location
Landing & Tie-down Fees
Crew Car Availability
Flying Clubs
WiFi Access
Airport Statistics
Location: Wichita Falls, TX
Elevation: 1,019ft
Sectional: Dallas Ft Worth
Fuel: 100LL, A (prices)
Runway 15R/33L: 13,101ft
Runway 15C/33C: 10,003ft
Runway 18/36: 7,021ft
Runway 15L/33R: 6,000ft
Access: Open to the public
Current Weather — VFR
  • Weather data is strictly informational and not for flight planning purposes.
  • METAR
    2024-05-24 19:52:00 CDT
    Ceiling Wind Temperature Dewpoint Weather Visbility
    Sky clear 20° @ 8kt 84°F 62°F N/A 9SM
    Raw: KSPS 250052Z AUTO 02008KT 9SM CLR 29/17 A2973 RMK AO2 SLP053 T02890167
  • TAF
    2024-05-24 19:00:00 CDT – 2024-05-25 06:00:00 CDT
    Ceiling Wind Weather Visbility
    Sky clear 30° @ 7kt N/A 6SM
    Clouds: Scattered @ 3,000ft, Scattered @ 25,000ft
    Raw: KSPS 242320Z 2500/2524 03007KT P6SM SCT030 SCT250 FM251100 10009KT P6SM BKN015 FM251600 18015G25KT P6SM SCT030
  • TAF
    2024-05-25 06:00:00 CDT – 2024-05-25 11:00:00 CDT
    Ceiling Wind Weather Visbility
    1,500ft 100° @ 9kt N/A 6SM
    Clouds: Broken @ 1,500ft
    Raw: KSPS 242320Z 2500/2524 03007KT P6SM SCT030 SCT250 FM251100 10009KT P6SM BKN015 FM251600 18015G25KT P6SM SCT030
  • TAF
    2024-05-25 11:00:00 CDT – 2024-05-25 19:00:00 CDT
    Ceiling Wind Weather Visbility
    Sky clear 180° @ 15kt, gusts 25kt N/A 6SM
    Clouds: Scattered @ 3,000ft
    Raw: KSPS 242320Z 2500/2524 03007KT P6SM SCT030 SCT250 FM251100 10009KT P6SM BKN015 FM251600 18015G25KT P6SM SCT030
Click/tap to add an annotation marker to the map
Airport Webcams
No webcams added yet.
Direct links to live image URLs will be displayed inline on this page. URLs to separate webpages will be linked to.
URL:
Direct links to live image URLs will be displayed inline on this page. URLs to separate webpages will be linked to.
URL:
Remarks
  • Tran alert: opr 1200-0200z++ wkd; 1800-2300z++ sun, clsd sat and hol.
  • Rstd: ppr, 24 hr pn rqr, ctc afld ops dsn 736-2180/6474, c940-676-2180/6474.
  • During periods when ctl twr is clsd exercise caution when taxiing; the civil arpt is lctd to the s and the mil ramp is lctd to the w of the rwys. fld cond notam (ficon) (rsc/rcr) not rprtd when twr clsd.
  • Rstd: tran acft ltd to one apch to a full stop ldg and must taxi to prkg durg stu trng.
  • Migratory bird activity on & invof arpt fm oct-apr.
Comments
Leave a comment What was your experience like at this airport?